Portada
METAR-TAF:

METAR-TAF

Aeroports :

Orsk, Rússia

latitud: 51-04-18N, longitud: 058-35-48E, altitud: 277 m

Observació

L'informe es va fer fa 36 minuts, a les 03:00 UTC
Vent 4 kt del Oest/Nord-Oest
Temperatura -23°C
Humitat 70%
Pressió 1044 hPa
Visibilitat 10 km o més
sense núvols per sota de 1500 mi sense presència de cumulonimbus.

METAR: UWOR 210300Z 30002MPS CAVOK M23/M27 Q1044 R07/850240 NOSIG RMK QFE757/1010

Hora: 08:36 (03:36 UTC)

Pronòstic

L'informe es va fer fa 1 hora i 50 minuts, a les 01:46 UTC
Pronòstic vàlid del 21 a les 03 UTC al 21 a les 12 UTC
Vent 6 kt del Nord amb ràfegues de 16 kt
Visibilitat 10 km o més
Núvols disperses a una alçada de 2000 ft

TAF: UWOR 210146Z 2103/2112 35003G08MPS 9999 SCT020 TXM18/2109Z TNM23/2103Z

Observacions i pronòstics meteorològics de més de 4000 aeroports (METAR i TAF).

Les estacions disponibles són els punts grocs i vermells al mapa.

Posi el ratolí al punt desitjat per veure el nom de l'estació.

Feu clic per veure les observacions i els pronòstics meteorològics.

Per canviar el mapa: feu clic els botons verds amb una creu de color negre per apropar; al botó verd amb un guió per allunyar la imatge; o en les fletxes verdes per a mapes adjacents.


METAR-TAF: